Terminal Aerodrome Forecast
Issued by NWS Central Illinois

Home | Current Version | Previous Version | Text Only | Print | Product List | Glossary On
Versions: 1 2 3 4 5 6 7 8 9 10 11 12 13 14 15 16 17 18 19 20
000
FTUS43 KILX 041126
TAFPIA
TAF
KPIA 041126Z 0412/0512 35010KT 3SM BR SCT002
      TEMPO 0412/0413 3/4SM BR OVC002
     FM041300 36014G22KT P6SM SKC
     FM041800 35015G23KT P6SM BKN040
     FM050100 33004KT P6SM SKC=

USA.gov is the U.S. government's official web portal to all federal, state and local government web resources and services.